GFLLGLRB

Guest
Details From GFLL - FREETOWN LUNGI
To GLRB - MONROVIA ROBERTS INTL
Flight Number -
Tags generated
Created
Modified
Stats Distance 222 nm / 410 km
Max Altitude 27,600 ft / 8,412 m
Waypoints 4
Social Downloads 0
Likes 0
Share VATSIM

Download

Looking for another format? Having issues loading an existing format? Contact us
Advertisement - Login to hide

Notes

Basic altitude profile: - Ascent Rate: 30000ft/min - Ascent Speed: 300kts - Cruise Altitude: 35000ft - Cruise Speed: 420kts - Descent Rate: 1500ft/min - Descent Speed: 250kts Options: - Use NATs: yes - Use PACOTS: yes - Use low airways: yes - Use high airways: yes

Route

GFLL MATRU B614 ROB GLRB

ID Type Via Altitude Latitude Longitude Leg Dist Tot Dist Heading (true) Name
O GFLL APT - 0 ft / 0 m 8.61644˚ -13.19549˚ - 0 nm - FREETOWN LUNGI
MATRU FIX - 27,600 ft / 8,412 m 7.66674˚ -12.06648˚ 88 nm 88 nm 130° / 130° -
ROB VOR B614 (AWY-LO) 5,000 ft / 1,524 m 6.23954˚ -10.35828˚ 133 nm 221 nm 130° / 130° MONROVIA ROBERTS VOR-DME
O GLRB APT - 0 ft / 0 m 6.23379˚ -10.36231˚ 0 nm 221 nm 215° / 215° MONROVIA ROBERTS INTL

Altitude Profile

Advertisement - Login to hide

Weather


0- 5 10 15 20 25 30 35+ Temperature / ° C

Clouds and Precipitation
Forecast for 2017-12-15 06:00 UTC. Updated an hour ago

Ground ~20,000 ft ~40,000 ft Winds

GFLL

Details ICAO GFLL (FNA)
Name FREETOWN LUNGI
Region Sierra Leone
Timezone Africa/Freetown (UTC+0.0)
Stats Elevation 84 ft / 26 m (AMSL)
Location 8.616443° -13.195489°
Runways 1
Magnetic Variation 7.109° W

METAR

Not found

TAF

TAF TAF GFLL 142200Z 1500/1606 29005KT 9000 HZ NSC TEMPO 1503/1508 VRB03KT 5000 BR NSC BECMG 1514/1516 26008KT 9000 HZ FEW016 TEMPO 1522/1603 26003KT 5000 BR FEW016

Decode

Departure Runways

ID Width Length Bearing (true) Bearing (mag) Surface Threshold Offset Overrun Length
12 150 ft / 46 m 10,507 ft / 3,203 m 107.14° 114.25° Asphalt 0 ft / 0 m 394 ft / 120 m
30 150 ft / 46 m 10,507 ft / 3,203 m 287.14° 294.25° Asphalt 0 ft / 0 m 197 ft / 60 m

GLRB

Details ICAO GLRB (ROB)
Name MONROVIA ROBERTS INTL
Region Liberia
Timezone Africa/Monrovia (UTC+0.0)
Stats Elevation 31 ft / 9 m (AMSL)
Location 6.233790° -10.362312°
Runways 1
Magnetic Variation 6.703° W

METAR

GLRB 150430Z 00000KT 5000 BR FEW005 FEW011 FEW022CB 25/24 Q1011 RMK CB-S

Decode

TAF

TAF TAF GLRB 141600Z 1418/1524 24008KT 4000 HZ SCT018 TEMPO 1419/1423 19006KT 6000 SCT016 BECMG 1600/1602 04004KT 3000 BR BKN006

Decode

Destination Runways

ID Width Length Bearing (true) Bearing (mag) Surface Threshold Offset Overrun Length
04 150 ft / 46 m 11,029 ft / 3,362 m 30.94° 37.64° Asphalt 0 ft / 0 m 0 ft / 0 m
22 150 ft / 46 m 11,029 ft / 3,362 m 210.94° 217.64° Asphalt 1,200 ft / 366 m 0 ft / 0 m

Popular Alternatives